Enter your " Place, State", US Zip Code or ICAO:  
Portland, Oregon (97201)  Lat: 45.52N, Lon: 122.67W
Wx Zone: ORZ006 ICAO Used: KPDX
Current Conditions
Updated: UNKNOWN
Sun & Moon Information:
Fair
Fair
Temp: N/A
Humidity: N/A
Wind Speed: N/A
Barometer: N/A
Dewpoint: N/A
Heat Index: N/A
Wind Chill: N/A
Civil Twilight: 7:08 AM PST Moon Phase:
First Quarter Moon
First Quarter Moon
Sunrise: 7:41 AM PST
Sunset: 5:02 PM PST
Civil Twilight: 5:35 PM PST
Forecast for Portland, OR:
(Forecast based on TAF for )
1100 AM PST TUE JAN 23 2018
  
MORNING AFTERNOON EVENING OVERNIGHT
Light Rain Light Rain Light Rain Light Rain
Light
Rain
Light
Rain
Light
Rain
Light
Rain
TAF based forecast:
Dated: 1100 AM PST TUE JAN 23 2018
Morning...Changing to light rain and overcast skies with winds from the southeast at 17 mph and gusts up to 25 mph.
Afternoon...Overcast and light rain with winds from the southeast at 17 mph and gusts up to 25 mph.
Evening...Overcast and light rain with winds from the southeast at 17 mph and gusts up to 29 mph.
Overnight...Overcast and light rain with winds from the southeast at 17 mph and gusts up to 29 mph.
Original Encoded TAF:
Dated: 1100 AM PST TUE JAN 23 2018
2018/01/23 15:52
TAF 
      AMD KPDX 231450Z 2315/2412 12010KT P6SM -RA OVC045 
     FM231900 12015G22KT P6SM -RA OVC035 
     FM232300 14015G25KT 5SM -RA BKN025 OVC050 
     FM240300 17012G22KT P6SM -RA SCT030 OVC050